sensor_id;sensor_type;location;lat;lon;timestamp;temperature;humidity
4910;DHT22;2470;49.868;8.660;2022-07-21T00:01:20;24.50;99.90
4910;DHT22;2470;49.868;8.660;2022-07-21T00:03:46;24.50;99.90
4910;DHT22;2470;49.868;8.660;2022-07-21T00:06:11;24.40;99.90
4910;DHT22;2470;49.868;8.660;2022-07-21T00:08:37;24.30;99.90
4910;DHT22;2470;49.868;8.660;2022-07-21T00:11:02;24.20;99.90
4910;DHT22;2470;49.868;8.660;2022-07-21T00:13:28;24.10;99.90
4910;DHT22;2470;49.868;8.660;2022-07-21T00:15:54;24.00;99.90
4910;DHT22;2470;49.868;8.660;2022-07-21T00:18:19;23.90;99.90
4910;DHT22;2470;49.868;8.660;2022-07-21T00:20:45;23.90;99.90
4910;DHT22;2470;49.868;8.660;2022-07-21T00:23:11;23.90;99.90
4910;DHT22;2470;49.868;8.660;2022-07-21T00:25:37;23.80;99.90
4910;DHT22;2470;49.868;8.660;2022-07-21T00:28:04;23.80;99.90
4910;DHT22;2470;49.868;8.660;2022-07-21T00:30:30;23.70;99.90
4910;DHT22;2470;49.868;8.660;2022-07-21T00:32:56;23.60;99.90
4910;DHT22;2470;49.868;8.660;2022-07-21T00:35:21;23.60;99.90
4910;DHT22;2470;49.868;8.660;2022-07-21T00:37:47;23.60;99.90
4910;DHT22;2470;49.868;8.660;2022-07-21T00:40:12;23.60;99.90
4910;DHT22;2470;49.868;8.660;2022-07-21T00:42:39;23.60;99.90
4910;DHT22;2470;49.868;8.660;2022-07-21T00:45:06;23.60;99.90
4910;DHT22;2470;49.868;8.660;2022-07-21T00:47:31;23.60;99.90
4910;DHT22;2470;49.868;8.660;2022-07-21T00:49:58;23.60;99.90
4910;DHT22;2470;49.868;8.660;2022-07-21T00:52:24;23.60;99.90
4910;DHT22;2470;49.868;8.660;2022-07-21T00:54:51;23.60;99.90
4910;DHT22;2470;49.868;8.660;2022-07-21T00:57:17;23.60;99.90
4910;DHT22;2470;49.868;8.660;2022-07-21T00:59:44;23.40;99.90
4910;DHT22;2470;49.868;8.660;2022-07-21T01:02:11;23.30;99.90
4910;DHT22;2470;49.868;8.660;2022-07-21T01:04:37;23.30;99.90
4910;DHT22;2470;49.868;8.660;2022-07-21T01:07:04;23.20;99.90
4910;DHT22;2470;49.868;8.660;2022-07-21T01:09:31;23.10;99.90
4910;DHT22;2470;49.868;8.660;2022-07-21T01:11:57;23.00;99.90
4910;DHT22;2470;49.868;8.660;2022-07-21T01:14:24;23.00;99.90
4910;DHT22;2470;49.868;8.660;2022-07-21T01:16:50;23.00;99.90
4910;DHT22;2470;49.868;8.660;2022-07-21T01:19:16;23.00;99.90
4910;DHT22;2470;49.868;8.660;2022-07-21T01:21:44;23.00;99.90
4910;DHT22;2470;49.868;8.660;2022-07-21T01:24:10;22.90;99.90
4910;DHT22;2470;49.868;8.660;2022-07-21T01:26:49;22.90;99.90
4910;DHT22;2470;49.868;8.660;2022-07-21T01:29:16;22.90;99.90
4910;DHT22;2470;49.868;8.660;2022-07-21T01:31:44;22.90;99.90
4910;DHT22;2470;49.868;8.660;2022-07-21T01:34:11;22.80;99.90
4910;DHT22;2470;49.868;8.660;2022-07-21T01:36:37;22.70;99.90
4910;DHT22;2470;49.868;8.660;2022-07-21T01:39:04;22.70;99.90
4910;DHT22;2470;49.868;8.660;2022-07-21T01:41:49;22.60;99.90
4910;DHT22;2470;49.868;8.660;2022-07-21T01:44:15;22.70;99.90
4910;DHT22;2470;49.868;8.660;2022-07-21T01:46:43;22.70;99.90
4910;DHT22;2470;49.868;8.660;2022-07-21T01:49:13;22.70;99.90
4910;DHT22;2470;49.868;8.660;2022-07-21T01:51:39;22.60;99.90
4910;DHT22;2470;49.868;8.660;2022-07-21T01:54:05;22.60;99.90
4910;DHT22;2470;49.868;8.660;2022-07-21T01:56:33;22.60;99.90
4910;DHT22;2470;49.868;8.660;2022-07-21T01:58:58;22.50;99.90
4910;DHT22;2470;49.868;8.660;2022-07-21T02:01:26;22.50;99.90
4910;DHT22;2470;49.868;8.660;2022-07-21T02:03:53;22.50;99.90
4910;DHT22;2470;49.868;8.660;2022-07-21T02:06:18;22.50;99.90
4910;DHT22;2470;49.868;8.660;2022-07-21T02:08:44;22.50;99.90
4910;DHT22;2470;49.868;8.660;2022-07-21T02:11:12;22.50;99.90
4910;DHT22;2470;49.868;8.660;2022-07-21T02:13:37;22.50;99.90
4910;DHT22;2470;49.868;8.660;2022-07-21T02:16:03;22.50;99.90
4910;DHT22;2470;49.868;8.660;2022-07-21T02:18:29;22.50;99.90
4910;DHT22;2470;49.868;8.660;2022-07-21T02:20:54;22.50;99.90
4910;DHT22;2470;49.868;8.660;2022-07-21T02:23:21;22.60;99.90
4910;DHT22;2470;49.868;8.660;2022-07-21T02:25:47;22.60;99.90
4910;DHT22;2470;49.868;8.660;2022-07-21T02:28:13;22.60;99.90
4910;DHT22;2470;49.868;8.660;2022-07-21T02:30:39;22.60;99.90
4910;DHT22;2470;49.868;8.660;2022-07-21T02:33:05;22.60;99.90
4910;DHT22;2470;49.868;8.660;2022-07-21T02:35:31;22.50;99.90
4910;DHT22;2470;49.868;8.660;2022-07-21T02:37:57;22.50;99.90
4910;DHT22;2470;49.868;8.660;2022-07-21T02:40:23;22.60;99.90
4910;DHT22;2470;49.868;8.660;2022-07-21T02:42:48;22.60;99.90
4910;DHT22;2470;49.868;8.660;2022-07-21T02:45:14;22.70;99.90
4910;DHT22;2470;49.868;8.660;2022-07-21T02:48:01;22.70;99.90
4910;DHT22;2470;49.868;8.660;2022-07-21T02:50:30;22.70;99.90
4910;DHT22;2470;49.868;8.660;2022-07-21T02:52:57;22.70;99.90
4910;DHT22;2470;49.868;8.660;2022-07-21T02:55:23;22.70;99.90
4910;DHT22;2470;49.868;8.660;2022-07-21T02:57:49;22.70;99.90
4910;DHT22;2470;49.868;8.660;2022-07-21T03:00:15;22.70;99.90
4910;DHT22;2470;49.868;8.660;2022-07-21T03:02:40;22.70;99.90
4910;DHT22;2470;49.868;8.660;2022-07-21T03:05:06;22.70;99.90
4910;DHT22;2470;49.868;8.660;2022-07-21T03:07:32;22.70;99.90
4910;DHT22;2470;49.868;8.660;2022-07-21T03:09:58;22.70;99.90
4910;DHT22;2470;49.868;8.660;2022-07-21T03:12:23;22.70;99.90
4910;DHT22;2470;49.868;8.660;2022-07-21T03:14:49;22.70;99.90
4910;DHT22;2470;49.868;8.660;2022-07-21T03:17:14;22.70;99.90
4910;DHT22;2470;49.868;8.660;2022-07-21T03:19:40;22.70;99.90
4910;DHT22;2470;49.868;8.660;2022-07-21T03:22:05;22.70;99.90
4910;DHT22;2470;49.868;8.660;2022-07-21T03:24:31;22.60;99.90
4910;DHT22;2470;49.868;8.660;2022-07-21T03:26:57;22.60;99.90
4910;DHT22;2470;49.868;8.660;2022-07-21T03:29:23;22.60;99.90
4910;DHT22;2470;49.868;8.660;2022-07-21T03:31:48;22.60;99.90
4910;DHT22;2470;49.868;8.660;2022-07-21T03:34:14;22.50;99.90
4910;DHT22;2470;49.868;8.660;2022-07-21T03:36:39;22.50;99.90
4910;DHT22;2470;49.868;8.660;2022-07-21T03:39:05;22.50;99.90
4910;DHT22;2470;49.868;8.660;2022-07-21T03:41:30;22.40;99.90
4910;DHT22;2470;49.868;8.660;2022-07-21T03:43:56;22.40;99.90
4910;DHT22;2470;49.868;8.660;2022-07-21T03:46:22;22.40;99.90
4910;DHT22;2470;49.868;8.660;2022-07-21T03:48:47;22.40;99.90
4910;DHT22;2470;49.868;8.660;2022-07-21T03:51:13;22.40;99.90
4910;DHT22;2470;49.868;8.660;2022-07-21T03:53:38;22.50;99.90
4910;DHT22;2470;49.868;8.660;2022-07-21T03:56:04;22.40;99.90
4910;DHT22;2470;49.868;8.660;2022-07-21T03:58:30;22.50;99.90
4910;DHT22;2470;49.868;8.660;2022-07-21T04:00:55;22.50;99.90
4910;DHT22;2470;49.868;8.660;2022-07-21T04:03:21;22.40;99.90
4910;DHT22;2470;49.868;8.660;2022-07-21T04:05:46;22.40;99.90
4910;DHT22;2470;49.868;8.660;2022-07-21T04:08:12;22.40;99.90
4910;DHT22;2470;49.868;8.660;2022-07-21T04:10:40;22.40;99.90
4910;DHT22;2470;49.868;8.660;2022-07-21T04:13:09;22.40;99.90
4910;DHT22;2470;49.868;8.660;2022-07-21T04:15:36;22.40;99.90
4910;DHT22;2470;49.868;8.660;2022-07-21T04:18:02;22.40;99.90
4910;DHT22;2470;49.868;8.660;2022-07-21T04:20:27;22.40;99.90
4910;DHT22;2470;49.868;8.660;2022-07-21T04:22:53;22.40;99.90
4910;DHT22;2470;49.868;8.660;2022-07-21T04:25:19;22.50;99.90
4910;DHT22;2470;49.868;8.660;2022-07-21T04:27:46;22.50;99.90
4910;DHT22;2470;49.868;8.660;2022-07-21T04:30:15;22.60;99.90
4910;DHT22;2470;49.868;8.660;2022-07-21T04:32:41;22.60;99.90
4910;DHT22;2470;49.868;8.660;2022-07-21T04:35:07;22.70;99.90
4910;DHT22;2470;49.868;8.660;2022-07-21T04:37:34;22.80;99.90
4910;DHT22;2470;49.868;8.660;2022-07-21T04:40:00;22.90;99.90
4910;DHT22;2470;49.868;8.660;2022-07-21T04:42:25;22.90;99.90
4910;DHT22;2470;49.868;8.660;2022-07-21T04:44:51;22.90;99.90
4910;DHT22;2470;49.868;8.660;2022-07-21T04:47:17;22.80;99.90
4910;DHT22;2470;49.868;8.660;2022-07-21T04:49:43;22.80;99.90
4910;DHT22;2470;49.868;8.660;2022-07-21T04:52:09;22.80;99.90
4910;DHT22;2470;49.868;8.660;2022-07-21T04:54:34;22.80;99.90
4910;DHT22;2470;49.868;8.660;2022-07-21T04:57:00;22.80;99.90
4910;DHT22;2470;49.868;8.660;2022-07-21T04:59:28;22.80;99.90
4910;DHT22;2470;49.868;8.660;2022-07-21T05:01:55;22.90;99.90
4910;DHT22;2470;49.868;8.660;2022-07-21T05:04:20;22.90;99.90
4910;DHT22;2470;49.868;8.660;2022-07-21T05:06:46;22.90;99.90
4910;DHT22;2470;49.868;8.660;2022-07-21T05:09:11;22.90;99.90
4910;DHT22;2470;49.868;8.660;2022-07-21T05:11:37;23.00;99.90
4910;DHT22;2470;49.868;8.660;2022-07-21T05:14:02;23.10;99.90
4910;DHT22;2470;49.868;8.660;2022-07-21T05:16:28;23.10;99.90
4910;DHT22;2470;49.868;8.660;2022-07-21T05:18:54;23.10;99.90
4910;DHT22;2470;49.868;8.660;2022-07-21T05:21:19;23.10;99.90
4910;DHT22;2470;49.868;8.660;2022-07-21T05:23:45;23.20;99.90
4910;DHT22;2470;49.868;8.660;2022-07-21T05:26:11;23.20;99.90
4910;DHT22;2470;49.868;8.660;2022-07-21T05:28:37;23.10;99.90
4910;DHT22;2470;49.868;8.660;2022-07-21T05:31:03;23.10;99.90
4910;DHT22;2470;49.868;8.660;2022-07-21T05:33:29;23.10;99.90
4910;DHT22;2470;49.868;8.660;2022-07-21T05:35:54;23.20;99.90
4910;DHT22;2470;49.868;8.660;2022-07-21T05:38:20;23.20;99.90
4910;DHT22;2470;49.868;8.660;2022-07-21T05:40:45;23.40;99.90
4910;DHT22;2470;49.868;8.660;2022-07-21T05:43:11;23.50;99.90
4910;DHT22;2470;49.868;8.660;2022-07-21T05:45:36;23.60;99.90
4910;DHT22;2470;49.868;8.660;2022-07-21T05:48:02;23.50;99.90
4910;DHT22;2470;49.868;8.660;2022-07-21T05:50:27;23.50;99.90
4910;DHT22;2470;49.868;8.660;2022-07-21T05:52:53;23.60;99.90
4910;DHT22;2470;49.868;8.660;2022-07-21T05:55:18;23.60;99.90
4910;DHT22;2470;49.868;8.660;2022-07-21T05:57:44;23.50;99.90
4910;DHT22;2470;49.868;8.660;2022-07-21T06:00:10;23.50;99.90
4910;DHT22;2470;49.868;8.660;2022-07-21T06:02:35;23.40;99.90
4910;DHT22;2470;49.868;8.660;2022-07-21T06:05:01;23.30;99.90
4910;DHT22;2470;49.868;8.660;2022-07-21T06:07:26;23.20;99.90
4910;DHT22;2470;49.868;8.660;2022-07-21T06:09:52;23.20;99.90
4910;DHT22;2470;49.868;8.660;2022-07-21T06:12:18;23.20;99.90
4910;DHT22;2470;49.868;8.660;2022-07-21T06:14:43;23.30;99.90
4910;DHT22;2470;49.868;8.660;2022-07-21T06:17:09;23.40;99.90
4910;DHT22;2470;49.868;8.660;2022-07-21T06:19:34;23.50;99.90
4910;DHT22;2470;49.868;8.660;2022-07-21T06:22:00;23.60;99.90
4910;DHT22;2470;49.868;8.660;2022-07-21T06:24:28;23.50;99.90
4910;DHT22;2470;49.868;8.660;2022-07-21T06:26:53;23.50;99.90
4910;DHT22;2470;49.868;8.660;2022-07-21T06:29:23;23.50;99.90
4910;DHT22;2470;49.868;8.660;2022-07-21T06:31:48;23.50;99.90
4910;DHT22;2470;49.868;8.660;2022-07-21T06:34:14;23.50;99.90
4910;DHT22;2470;49.868;8.660;2022-07-21T06:36:39;23.60;99.90
4910;DHT22;2470;49.868;8.660;2022-07-21T06:39:05;23.70;99.90
4910;DHT22;2470;49.868;8.660;2022-07-21T06:41:31;23.70;99.90
4910;DHT22;2470;49.868;8.660;2022-07-21T06:43:56;23.80;99.90
4910;DHT22;2470;49.868;8.660;2022-07-21T06:46:22;23.80;99.90
4910;DHT22;2470;49.868;8.660;2022-07-21T06:48:48;23.80;99.90
4910;DHT22;2470;49.868;8.660;2022-07-21T06:51:13;23.90;99.90
4910;DHT22;2470;49.868;8.660;2022-07-21T06:53:39;23.80;99.90
4910;DHT22;2470;49.868;8.660;2022-07-21T06:56:05;23.80;99.90
4910;DHT22;2470;49.868;8.660;2022-07-21T06:58:31;23.80;99.90
4910;DHT22;2470;49.868;8.660;2022-07-21T07:01:16;23.70;99.90
4910;DHT22;2470;49.868;8.660;2022-07-21T07:04:05;23.80;99.90
4910;DHT22;2470;49.868;8.660;2022-07-21T07:06:31;23.90;99.90
4910;DHT22;2470;49.868;8.660;2022-07-21T07:08:56;24.10;99.90
4910;DHT22;2470;49.868;8.660;2022-07-21T07:11:22;24.20;99.90
4910;DHT22;2470;49.868;8.660;2022-07-21T07:13:47;24.40;99.90
4910;DHT22;2470;49.868;8.660;2022-07-21T07:16:13;24.50;99.90
4910;DHT22;2470;49.868;8.660;2022-07-21T07:18:38;24.50;99.90
4910;DHT22;2470;49.868;8.660;2022-07-21T07:21:04;24.30;99.90
4910;DHT22;2470;49.868;8.660;2022-07-21T07:23:30;24.20;99.90
4910;DHT22;2470;49.868;8.660;2022-07-21T07:25:55;24.20;99.90
4910;DHT22;2470;49.868;8.660;2022-07-21T07:28:21;24.20;99.90
4910;DHT22;2470;49.868;8.660;2022-07-21T07:30:46;24.10;99.90
4910;DHT22;2470;49.868;8.660;2022-07-21T07:33:13;24.10;99.90
4910;DHT22;2470;49.868;8.660;2022-07-21T07:35:39;24.10;99.90
4910;DHT22;2470;49.868;8.660;2022-07-21T07:38:04;24.10;99.90
4910;DHT22;2470;49.868;8.660;2022-07-21T07:40:30;24.10;99.90
4910;DHT22;2470;49.868;8.660;2022-07-21T07:42:56;24.00;99.90
4910;DHT22;2470;49.868;8.660;2022-07-21T07:45:21;24.00;99.90
4910;DHT22;2470;49.868;8.660;2022-07-21T07:47:47;24.10;99.90
4910;DHT22;2470;49.868;8.660;2022-07-21T07:50:13;24.20;99.90
4910;DHT22;2470;49.868;8.660;2022-07-21T07:52:40;24.20;99.90
4910;DHT22;2470;49.868;8.660;2022-07-21T07:55:07;24.20;99.90
4910;DHT22;2470;49.868;8.660;2022-07-21T07:57:36;24.20;99.90
4910;DHT22;2470;49.868;8.660;2022-07-21T08:00:08;24.30;99.90
4910;DHT22;2470;49.868;8.660;2022-07-21T08:02:34;24.40;99.90
4910;DHT22;2470;49.868;8.660;2022-07-21T08:05:00;24.50;99.90
4910;DHT22;2470;49.868;8.660;2022-07-21T08:07:26;24.40;99.90
4910;DHT22;2470;49.868;8.660;2022-07-21T08:09:51;24.30;99.90
4910;DHT22;2470;49.868;8.660;2022-07-21T08:12:17;24.30;99.90
4910;DHT22;2470;49.868;8.660;2022-07-21T08:14:43;24.20;99.90
4910;DHT22;2470;49.868;8.660;2022-07-21T08:17:08;23.90;99.90
4910;DHT22;2470;49.868;8.660;2022-07-21T08:19:34;23.80;99.90
4910;DHT22;2470;49.868;8.660;2022-07-21T08:21:59;23.70;99.90
4910;DHT22;2470;49.868;8.660;2022-07-21T08:24:26;23.60;99.90
4910;DHT22;2470;49.868;8.660;2022-07-21T08:26:52;23.60;99.90
4910;DHT22;2470;49.868;8.660;2022-07-21T08:29:17;23.50;99.90
4910;DHT22;2470;49.868;8.660;2022-07-21T08:31:43;23.50;99.90
4910;DHT22;2470;49.868;8.660;2022-07-21T08:34:08;23.30;99.90
4910;DHT22;2470;49.868;8.660;2022-07-21T08:36:34;23.30;99.90
4910;DHT22;2470;49.868;8.660;2022-07-21T08:38:59;23.20;99.90
4910;DHT22;2470;49.868;8.660;2022-07-21T08:41:25;23.20;99.90
4910;DHT22;2470;49.868;8.660;2022-07-21T08:43:51;23.30;99.90
4910;DHT22;2470;49.868;8.660;2022-07-21T08:46:21;23.30;99.90
4910;DHT22;2470;49.868;8.660;2022-07-21T08:48:46;23.40;99.90
4910;DHT22;2470;49.868;8.660;2022-07-21T08:51:12;23.50;99.90
4910;DHT22;2470;49.868;8.660;2022-07-21T08:53:40;23.70;99.90
4910;DHT22;2470;49.868;8.660;2022-07-21T08:56:08;23.80;99.90
4910;DHT22;2470;49.868;8.660;2022-07-21T08:58:34;23.80;99.90
4910;DHT22;2470;49.868;8.660;2022-07-21T09:01:01;23.80;99.90
4910;DHT22;2470;49.868;8.660;2022-07-21T09:03:27;23.70;99.90
4910;DHT22;2470;49.868;8.660;2022-07-21T09:08:31;23.80;99.90
4910;DHT22;2470;49.868;8.660;2022-07-21T09:11:28;24.00;99.90
4910;DHT22;2470;49.868;8.660;2022-07-21T09:14:08;24.20;99.90
4910;DHT22;2470;49.868;8.660;2022-07-21T09:16:39;24.30;99.90
4910;DHT22;2470;49.868;8.660;2022-07-21T09:19:05;24.10;99.90
4910;DHT22;2470;49.868;8.660;2022-07-21T09:21:33;23.90;99.90
4910;DHT22;2470;49.868;8.660;2022-07-21T09:24:35;23.80;99.90
4910;DHT22;2470;49.868;8.660;2022-07-21T09:27:17;23.70;99.90
4910;DHT22;2470;49.868;8.660;2022-07-21T09:29:48;23.70;99.90
4910;DHT22;2470;49.868;8.660;2022-07-21T09:37:27;23.70;99.90
4910;DHT22;2470;49.868;8.660;2022-07-21T09:42:26;23.90;99.90
4910;DHT22;2470;49.868;8.660;2022-07-21T09:45:05;23.90;99.90
4910;DHT22;2470;49.868;8.660;2022-07-21T09:47:32;24.10;99.90
4910;DHT22;2470;49.868;8.660;2022-07-21T09:49:59;24.10;99.90
4910;DHT22;2470;49.868;8.660;2022-07-21T09:52:30;24.10;99.90
4910;DHT22;2470;49.868;8.660;2022-07-21T09:55:07;24.00;99.90
4910;DHT22;2470;49.868;8.660;2022-07-21T09:57:34;23.90;99.90
4910;DHT22;2470;49.868;8.660;2022-07-21T10:00:00;23.90;99.90
4910;DHT22;2470;49.868;8.660;2022-07-21T10:02:27;24.00;99.90
4910;DHT22;2470;49.868;8.660;2022-07-21T10:04:57;24.10;99.90
4910;DHT22;2470;49.868;8.660;2022-07-21T10:07:24;24.20;99.90
4910;DHT22;2470;49.868;8.660;2022-07-21T10:09:51;24.30;99.90
4910;DHT22;2470;49.868;8.660;2022-07-21T10:12:16;24.60;99.90
4910;DHT22;2470;49.868;8.660;2022-07-21T10:14:43;24.80;99.90
4910;DHT22;2470;49.868;8.660;2022-07-21T10:17:08;24.90;99.90
4910;DHT22;2470;49.868;8.660;2022-07-21T10:19:44;25.00;99.90
4910;DHT22;2470;49.868;8.660;2022-07-21T10:24:49;25.50;99.70
4910;DHT22;2470;49.868;8.660;2022-07-21T10:27:15;25.60;98.20
4910;DHT22;2470;49.868;8.660;2022-07-21T10:29:54;25.50;98.10
4910;DHT22;2470;49.868;8.660;2022-07-21T10:32:23;25.40;98.30
4910;DHT22;2470;49.868;8.660;2022-07-21T10:34:50;25.30;97.30
4910;DHT22;2470;49.868;8.660;2022-07-21T10:37:43;25.20;97.70
4910;DHT22;2470;49.868;8.660;2022-07-21T10:42:44;25.30;97.50
4910;DHT22;2470;49.868;8.660;2022-07-21T10:45:32;25.60;97.40
4910;DHT22;2470;49.868;8.660;2022-07-21T10:47:59;25.80;97.30
4910;DHT22;2470;49.868;8.660;2022-07-21T10:50:36;26.00;95.00
4910;DHT22;2470;49.868;8.660;2022-07-21T10:53:05;26.00;94.50
4910;DHT22;2470;49.868;8.660;2022-07-21T10:55:35;26.00;94.00
4910;DHT22;2470;49.868;8.660;2022-07-21T11:00:56;25.70;93.80
4910;DHT22;2470;49.868;8.660;2022-07-21T11:08:37;25.70;93.00
4910;DHT22;2470;49.868;8.660;2022-07-21T11:14:04;26.20;91.90
4910;DHT22;2470;49.868;8.660;2022-07-21T11:19:39;26.50;88.50
4910;DHT22;2470;49.868;8.660;2022-07-21T11:22:22;26.50;89.00
4910;DHT22;2470;49.868;8.660;2022-07-21T11:25:01;26.50;87.50
4910;DHT22;2470;49.868;8.660;2022-07-21T11:27:29;26.60;86.70
4910;DHT22;2470;49.868;8.660;2022-07-21T11:29:57;26.70;87.90
4910;DHT22;2470;49.868;8.660;2022-07-21T11:32:23;26.80;85.20
4910;DHT22;2470;49.868;8.660;2022-07-21T11:39:51;27.10;81.20
4910;DHT22;2470;49.868;8.660;2022-07-21T11:42:17;27.00;78.50
4910;DHT22;2470;49.868;8.660;2022-07-21T11:44:43;26.70;79.10
4910;DHT22;2470;49.868;8.660;2022-07-21T11:47:11;26.70;80.00
4910;DHT22;2470;49.868;8.660;2022-07-21T11:49:38;26.80;80.00
4910;DHT22;2470;49.868;8.660;2022-07-21T11:52:08;27.00;80.10
4910;DHT22;2470;49.868;8.660;2022-07-21T11:54:43;27.20;78.30
4910;DHT22;2470;49.868;8.660;2022-07-21T11:57:12;27.40;77.90
4910;DHT22;2470;49.868;8.660;2022-07-21T11:59:38;27.60;77.20
4910;DHT22;2470;49.868;8.660;2022-07-21T12:02:14;27.90;76.40
4910;DHT22;2470;49.868;8.660;2022-07-21T12:04:44;28.20;75.20
4910;DHT22;2470;49.868;8.660;2022-07-21T12:09:50;28.40;71.30
4910;DHT22;2470;49.868;8.660;2022-07-21T12:12:28;28.20;72.10
4910;DHT22;2470;49.868;8.660;2022-07-21T12:14:55;28.00;72.80
4910;DHT22;2470;49.868;8.660;2022-07-21T12:17:38;27.70;73.00
4910;DHT22;2470;49.868;8.660;2022-07-21T12:20:07;27.80;75.80
4910;DHT22;2470;49.868;8.660;2022-07-21T12:25:05;28.10;72.00
4910;DHT22;2470;49.868;8.660;2022-07-21T12:27:34;28.20;72.40
4910;DHT22;2470;49.868;8.660;2022-07-21T12:30:00;28.40;73.70
4910;DHT22;2470;49.868;8.660;2022-07-21T12:33:02;28.80;72.50
4910;DHT22;2470;49.868;8.660;2022-07-21T12:35:28;29.20;70.10
4910;DHT22;2470;49.868;8.660;2022-07-21T12:38:01;29.40;70.10
4910;DHT22;2470;49.868;8.660;2022-07-21T12:40:28;29.30;68.60
4910;DHT22;2470;49.868;8.660;2022-07-21T12:45:48;29.00;66.80
4910;DHT22;2470;49.868;8.660;2022-07-21T12:48:16;28.50;67.30
4910;DHT22;2470;49.868;8.660;2022-07-21T12:50:42;28.20;68.90
4910;DHT22;2470;49.868;8.660;2022-07-21T12:53:09;28.10;70.30
4910;DHT22;2470;49.868;8.660;2022-07-21T12:55:36;28.60;69.60
4910;DHT22;2470;49.868;8.660;2022-07-21T12:58:02;31.00;67.00
4910;DHT22;2470;49.868;8.660;2022-07-21T13:00:28;32.30;61.50
4910;DHT22;2470;49.868;8.660;2022-07-21T13:02:55;31.80;61.10
4910;DHT22;2470;49.868;8.660;2022-07-21T13:05:23;31.00;61.70
4910;DHT22;2470;49.868;8.660;2022-07-21T13:07:48;30.10;61.40
4910;DHT22;2470;49.868;8.660;2022-07-21T13:10:15;29.40;63.50
4910;DHT22;2470;49.868;8.660;2022-07-21T13:12:41;30.10;64.60
4910;DHT22;2470;49.868;8.660;2022-07-21T13:15:06;30.20;63.80
4910;DHT22;2470;49.868;8.660;2022-07-21T13:17:32;29.90;64.20
4910;DHT22;2470;49.868;8.660;2022-07-21T13:19:57;29.50;64.50
4910;DHT22;2470;49.868;8.660;2022-07-21T13:22:23;29.10;65.20
4910;DHT22;2470;49.868;8.660;2022-07-21T13:24:48;28.70;66.30
4910;DHT22;2470;49.868;8.660;2022-07-21T13:27:14;28.70;66.60
4910;DHT22;2470;49.868;8.660;2022-07-21T13:29:39;28.60;65.60
4910;DHT22;2470;49.868;8.660;2022-07-21T13:32:07;28.50;66.20
4910;DHT22;2470;49.868;8.660;2022-07-21T13:34:33;29.90;66.50
4910;DHT22;2470;49.868;8.660;2022-07-21T13:36:59;33.70;60.70
4910;DHT22;2470;49.868;8.660;2022-07-21T13:39:24;36.70;54.30
4910;DHT22;2470;49.868;8.660;2022-07-21T13:41:52;36.60;50.90
4910;DHT22;2470;49.868;8.660;2022-07-21T13:44:18;35.10;50.50
4910;DHT22;2470;49.868;8.660;2022-07-21T13:46:44;33.40;51.70
4910;DHT22;2470;49.868;8.660;2022-07-21T13:49:09;32.00;53.30
4910;DHT22;2470;49.868;8.660;2022-07-21T13:51:35;30.80;55.40
4910;DHT22;2470;49.868;8.660;2022-07-21T13:54:00;30.00;57.20
4910;DHT22;2470;49.868;8.660;2022-07-21T13:56:26;29.50;58.60
4910;DHT22;2470;49.868;8.660;2022-07-21T13:58:52;29.10;59.70
4910;DHT22;2470;49.868;8.660;2022-07-21T14:01:18;28.80;59.10
4910;DHT22;2470;49.868;8.660;2022-07-21T14:03:44;28.60;59.50
4910;DHT22;2470;49.868;8.660;2022-07-21T14:06:11;28.30;60.10
4910;DHT22;2470;49.868;8.660;2022-07-21T14:08:36;28.10;60.80
4910;DHT22;2470;49.868;8.660;2022-07-21T14:11:03;28.10;61.80
4910;DHT22;2470;49.868;8.660;2022-07-21T14:13:30;30.20;60.70
4910;DHT22;2470;49.868;8.660;2022-07-21T14:15:55;31.90;56.60
4910;DHT22;2470;49.868;8.660;2022-07-21T14:18:21;31.60;56.10
4910;DHT22;2470;49.868;8.660;2022-07-21T14:20:46;31.00;55.70
4910;DHT22;2470;49.868;8.660;2022-07-21T14:23:13;30.30;56.10
4910;DHT22;2470;49.868;8.660;2022-07-21T14:25:38;29.60;57.30
4910;DHT22;2470;49.868;8.660;2022-07-21T14:28:05;29.20;58.30
4910;DHT22;2470;49.868;8.660;2022-07-21T14:30:30;28.90;59.10
4910;DHT22;2470;49.868;8.660;2022-07-21T14:32:56;28.60;59.20
4910;DHT22;2470;49.868;8.660;2022-07-21T14:35:22;28.40;59.70
4910;DHT22;2470;49.868;8.660;2022-07-21T14:37:49;28.30;60.30
4910;DHT22;2470;49.868;8.660;2022-07-21T14:40:16;28.20;60.90
4910;DHT22;2470;49.868;8.660;2022-07-21T14:42:42;28.10;60.90
4910;DHT22;2470;49.868;8.660;2022-07-21T14:45:09;28.10;61.80
4910;DHT22;2470;49.868;8.660;2022-07-21T14:47:34;30.10;60.00
4910;DHT22;2470;49.868;8.660;2022-07-21T14:50:01;33.60;55.50
4910;DHT22;2470;49.868;8.660;2022-07-21T14:52:26;36.10;50.10
4910;DHT22;2470;49.868;8.660;2022-07-21T14:54:52;36.00;48.00
4910;DHT22;2470;49.868;8.660;2022-07-21T14:57:17;35.20;48.30
4910;DHT22;2470;49.868;8.660;2022-07-21T14:59:43;35.80;48.80
4910;DHT22;2470;49.868;8.660;2022-07-21T15:02:09;37.70;46.70
4910;DHT22;2470;49.868;8.660;2022-07-21T15:04:35;39.40;44.10
4910;DHT22;2470;49.868;8.660;2022-07-21T15:07:00;41.20;41.90
4910;DHT22;2470;49.868;8.660;2022-07-21T15:09:26;42.00;40.20
4910;DHT22;2470;49.868;8.660;2022-07-21T15:11:52;43.10;38.40
4910;DHT22;2470;49.868;8.660;2022-07-21T15:14:17;43.40;36.80
4910;DHT22;2470;49.868;8.660;2022-07-21T15:16:43;41.70;36.80
4910;DHT22;2470;49.868;8.660;2022-07-21T15:19:08;39.20;39.10
4910;DHT22;2470;49.868;8.660;2022-07-21T15:21:34;36.90;41.40
4910;DHT22;2470;49.868;8.660;2022-07-21T15:24:00;35.10;44.10
4910;DHT22;2470;49.868;8.660;2022-07-21T15:26:25;33.60;46.20
4910;DHT22;2470;49.868;8.660;2022-07-21T15:28:51;32.60;47.90
4910;DHT22;2470;49.868;8.660;2022-07-21T15:31:16;31.90;49.20
4910;DHT22;2470;49.868;8.660;2022-07-21T15:33:42;31.30;50.50
4910;DHT22;2470;49.868;8.660;2022-07-21T15:36:08;30.80;50.60
4910;DHT22;2470;49.868;8.660;2022-07-21T15:38:33;30.40;52.00
4910;DHT22;2470;49.868;8.660;2022-07-21T15:41:00;30.30;53.00
4910;DHT22;2470;49.868;8.660;2022-07-21T15:43:28;30.20;52.70
4910;DHT22;2470;49.868;8.660;2022-07-21T15:45:54;30.10;53.10
4910;DHT22;2470;49.868;8.660;2022-07-21T15:48:19;30.00;53.60
4910;DHT22;2470;49.868;8.660;2022-07-21T15:50:45;29.90;53.80
4910;DHT22;2470;49.868;8.660;2022-07-21T15:53:10;29.80;54.90
4910;DHT22;2470;49.868;8.660;2022-07-21T15:55:36;29.60;54.30
4910;DHT22;2470;49.868;8.660;2022-07-21T15:58:03;29.50;54.60
4910;DHT22;2470;49.868;8.660;2022-07-21T16:00:28;29.40;54.60
4910;DHT22;2470;49.868;8.660;2022-07-21T16:02:54;29.20;55.00
4910;DHT22;2470;49.868;8.660;2022-07-21T16:05:23;29.00;55.60
4910;DHT22;2470;49.868;8.660;2022-07-21T16:07:50;28.90;56.00
4910;DHT22;2470;49.868;8.660;2022-07-21T16:10:18;29.00;56.60
4910;DHT22;2470;49.868;8.660;2022-07-21T16:12:44;29.20;56.20
4910;DHT22;2470;49.868;8.660;2022-07-21T16:15:11;29.20;56.10
4910;DHT22;2470;49.868;8.660;2022-07-21T16:17:37;29.30;55.70
4910;DHT22;2470;49.868;8.660;2022-07-21T16:20:07;29.10;55.20
4910;DHT22;2470;49.868;8.660;2022-07-21T16:22:34;29.00;55.20
4910;DHT22;2470;49.868;8.660;2022-07-21T16:25:00;29.00;55.30
4910;DHT22;2470;49.868;8.660;2022-07-21T16:27:26;28.90;55.60
4910;DHT22;2470;49.868;8.660;2022-07-21T16:29:51;28.80;55.00
4910;DHT22;2470;49.868;8.660;2022-07-21T16:32:17;28.70;55.00
4910;DHT22;2470;49.868;8.660;2022-07-21T16:34:42;28.60;55.40
4910;DHT22;2470;49.868;8.660;2022-07-21T16:37:09;28.60;55.40
4910;DHT22;2470;49.868;8.660;2022-07-21T16:39:36;28.50;55.60
4910;DHT22;2470;49.868;8.660;2022-07-21T16:42:02;28.40;56.00
4910;DHT22;2470;49.868;8.660;2022-07-21T16:44:28;28.40;56.50